Time;durP1;ratioP1;P1;durP2;ratioP2;P2;SDS_P1;SDS_P2;PMS_P1;PMS_P2;Temp;Humidity;BMP_temperature;BMP_pressure;BME280_temperature;BME280_humidity;BME280_pressure;Samples;Min_cycle;Max_cycle;Signal;HPM_P1;HPM_P2
2021/01/20 00:00:43;;;;;;;177.72;47.88;;;;;;;-19.03;69.05;99786.88;1745030;82;21496;-68
2021/01/20 00:03:11;;;;;;;171.95;49.23;;;;;;;-19.01;69.14;99776.30;1745052;82;20935;-68
2021/01/20 00:05:39;;;;;;;177.95;53.50;;;;;;;-19.00;68.98;99787.12;1745067;82;21077;-68
2021/01/20 00:08:07;;;;;;;220.37;60.55;;;;;;;-19.03;69.03;99796.52;1745090;82;21147;-67
2021/01/20 00:10:34;;;;;;;204.63;58.02;;;;;;;-19.02;69.08;99788.55;1745808;82;21381;-68
2021/01/20 00:13:03;;;;;;;254.72;69.25;;;;;;;-19.02;68.96;99788.55;1747813;82;21502;-68
2021/01/20 00:15:31;;;;;;;239.15;64.30;;;;;;;-19.05;68.90;99787.48;1747711;82;21075;-68
2021/01/20 00:17:59;;;;;;;228.65;59.05;;;;;;;-19.06;68.83;99785.34;1747661;82;21112;-68
2021/01/20 00:20:26;;;;;;;214.85;58.65;;;;;;;-19.04;68.85;99781.77;1747714;82;21173;-68
2021/01/20 00:22:54;;;;;;;204.57;54.60;;;;;;;-19.05;68.84;99773.09;1747712;82;21369;-68
2021/01/20 00:25:22;;;;;;;183.42;51.28;;;;;;;-19.02;68.94;99775.94;1747638;82;21079;-68
2021/01/20 00:27:50;;;;;;;215.12;56.85;;;;;;;-18.97;68.97;99791.63;1747709;82;21091;-68
2021/01/20 00:30:19;;;;;;;190.00;49.63;;;;;;;-18.94;68.81;99787.94;1747694;82;21011;-68
2021/01/20 00:32:47;;;;;;;183.03;48.20;;;;;;;-18.91;68.67;99788.52;1747748;82;21004;-68
2021/01/20 00:35:14;;;;;;;194.50;50.90;;;;;;;-18.94;68.53;99782.23;1747722;82;21242;-68
2021/01/20 00:37:42;;;;;;;179.15;42.60;;;;;;;-19.02;68.35;99787.23;1747593;82;21518;-69
2021/01/20 00:40:11;;;;;;;141.25;39.23;;;;;;;-19.06;68.37;99790.58;1747699;82;21074;-68
2021/01/20 00:42:38;;;;;;;134.22;37.75;;;;;;;-19.11;68.37;99782.30;1747781;82;21503;-69
2021/01/20 00:45:07;;;;;;;157.27;44.63;;;;;;;-19.14;68.60;99777.30;1747709;82;21127;-68
2021/01/20 00:47:34;;;;;;;163.82;43.50;;;;;;;-19.14;68.94;99775.16;1747729;82;21781;-68
2021/01/20 00:50:07;;;;;;;171.18;41.80;;;;;;;-19.12;69.23;99774.56;1747619;82;21079;-70
2021/01/20 00:52:34;;;;;;;;;;;;;;;-19.09;69.31;99765.99;1750286;82;21052;-68
2021/01/20 00:55:03;;;;;;;140.73;38.10;;;;;;;-19.04;69.38;99773.92;1747709;82;20142;-68
2021/01/20 00:57:30;;;;;;;125.15;36.93;;;;;;;-19.05;69.36;99769.16;1724380;82;21059;-68
2021/01/20 00:59:58;;;;;;;94.75;26.62;;;;;;;-19.07;69.20;99762.78;1747626;82;21206;-69
2021/01/20 01:02:25;;;;;;;141.40;37.33;;;;;;;-19.12;69.18;99773.26;1747580;82;20998;-69
2021/01/20 01:04:53;;;;;;;134.25;37.78;;;;;;;-19.16;69.33;99770.05;1747724;82;21505;-69
2021/01/20 01:07:21;;;;;;;101.33;27.75;;;;;;;-19.17;69.57;99750.08;1747609;82;21077;-69
2021/01/20 01:09:48;;;;;;;155.93;41.23;;;;;;;-19.17;69.77;99754.47;1747697;82;20986;-69
2021/01/20 01:12:35;;;;;;;210.38;66.45;;;;;;;-19.18;69.84;99745.80;1829542;76;27711;-69
2021/01/20 01:15:06;;;;;;;184.37;50.80;;;;;;;-19.18;69.89;99748.89;1815517;79;20917;-70
2021/01/20 01:17:34;;;;;;;178.60;47.60;;;;;;;-19.16;69.81;99743.89;1815698;79;21180;-70
2021/01/20 01:20:03;;;;;;;178.02;47.78;;;;;;;-19.16;69.93;99747.81;1809348;79;21456;-70
2021/01/20 01:22:31;;;;;;;145.95;38.25;;;;;;;-19.17;69.91;99759.70;1783413;79;20969;-70
2021/01/20 01:25:00;;;;;;;179.53;48.05;;;;;;;-19.17;69.86;99755.30;1783349;80;20949;-70
2021/01/20 01:27:27;;;;;;;142.18;41.98;;;;;;;-19.18;69.76;99750.20;1783405;80;20981;-69
2021/01/20 01:29:57;;;;;;;133.55;33.08;;;;;;;-19.19;69.74;99763.75;1783402;79;21197;-70
2021/01/20 01:32:26;;;;;;;138.03;33.30;;;;;;;-19.21;69.69;99774.81;1782960;80;20910;-69
2021/01/20 01:34:54;;;;;;;137.47;36.53;;;;;;;-19.25;69.66;99776.48;1783479;80;21444;-70
2021/01/20 01:37:22;;;;;;;128.30;36.95;;;;;;;-19.28;69.64;99776.25;1778538;80;20948;-70
2021/01/20 01:40:05;;;;;;;79.75;22.65;;;;;;;-19.29;69.65;99775.06;1774648;80;21468;-70
2021/01/20 01:42:34;;;;;;;106.35;28.77;;;;;;;-19.31;69.58;99773.05;1778679;79;22264;-69
2021/01/20 01:45:02;;;;;;;95.83;25.65;;;;;;;-19.34;69.70;99774.59;1783300;79;20929;-69
2021/01/20 01:47:30;;;;;;;100.58;28.15;;;;;;;-19.37;69.92;99775.66;1783372;80;20933;-69
2021/01/20 01:50:03;;;;;;;129.12;33.90;;;;;;;-19.37;70.12;99781.38;1783363;79;20965;-70
2021/01/20 01:52:33;;;;;;;151.53;39.10;;;;;;;-19.37;70.40;99773.53;1783364;80;21100;-70
2021/01/20 01:55:19;;;;;;;86.15;24.75;;;;;;;-19.34;70.57;99770.67;1783496;80;22102;-70
2021/01/20 01:58:01;;;;;;;67.50;19.00;;;;;;;-19.32;70.73;99766.15;1782772;80;21004;-70
2021/01/20 02:00:28;;;;;;;108.75;26.50;;;;;;;-19.32;70.78;99770.07;1783344;79;21119;-69
2021/01/20 02:03:01;;;;;;;116.15;31.15;;;;;;;-19.36;70.88;99766.87;1783065;79;20985;-69
2021/01/20 02:05:29;;;;;;;93.03;26.42;;;;;;;-19.39;71.00;99773.64;1783369;80;20929;-69
2021/01/20 02:07:58;;;;;;;135.48;33.00;;;;;;;-19.41;71.16;99767.23;1783338;80;21364;-69
2021/01/20 02:10:27;;;;;;;149.62;38.15;;;;;;;-19.41;71.29;99775.07;1783030;79;21023;-69
2021/01/20 02:13:03;;;;;;;138.85;35.60;;;;;;;-19.44;71.40;99770.08;1803191;79;20877;-69
2021/01/20 02:15:59;;;;;;;154.03;43.58;;;;;;;-19.44;71.57;99772.70;1803194;79;20984;-69
2021/01/20 02:18:29;;;;;;;139.30;35.17;;;;;;;-19.42;71.73;99776.02;1803239;79;21003;-68
2021/01/20 02:21:55;;;;;;;108.57;27.85;;;;;;;-19.33;71.83;99779.70;1852008;76;22783;-70
2021/01/20 02:25:13;;;;;;;113.65;30.90;;;;;;;-19.28;71.92;99783.27;1832701;77;22661;-70
2021/01/20 02:27:56;;;;;;;114.72;32.50;;;;;;;-19.31;71.92;99791.36;1775764;79;21024;-70
2021/01/20 02:30:24;;;;;;;113.03;29.80;;;;;;;-19.29;72.02;99790.76;1790914;80;21622;-70
2021/01/20 02:32:55;;;;;;;117.65;33.13;;;;;;;-19.30;72.06;99789.92;1780606;79;21055;-68
2021/01/20 02:35:40;;;;;;;146.68;40.43;;;;;;;-19.30;72.03;99792.55;1767542;80;20928;-68
2021/01/20 02:38:08;;;;;;;116.90;35.20;;;;;;;-19.30;72.06;99793.02;1759628;81;21079;-68
2021/01/20 02:40:46;;;;;;;101.27;27.15;;;;;;;-19.25;72.09;99790.88;1890179;75;22664;-68
2021/01/20 02:43:25;;;;;;;148.93;37.95;;;;;;;-19.29;72.01;99795.52;1747118;81;21523;-67
2021/01/20 02:46:11;;;;;;;136.25;37.48;;;;;;;-19.30;71.92;99791.23;1861211;77;22199;-69
2021/01/20 02:48:40;;;;;;;133.32;34.70;;;;;;;-19.33;72.00;99790.64;1861000;77;20999;-69
2021/01/20 02:51:08;;;;;;;127.20;38.58;;;;;;;-19.33;72.22;99785.41;1861003;77;20908;-69
2021/01/20 02:53:37;;;;;;;107.43;29.30;;;;;;;-19.32;72.27;99794.45;1859835;77;20923;-69
2021/01/20 02:56:23;;;;;;;103.20;29.48;;;;;;;-19.31;72.32;99791.36;1833280;77;20919;-69
2021/01/20 02:58:52;;;;;;;102.30;31.57;;;;;;;-19.28;72.45;99797.17;1858144;77;22060;-70
2021/01/20 03:01:40;;;;;;;89.95;24.37;;;;;;;-19.21;72.61;99797.05;1861031;77;21031;-70
2021/01/20 03:04:07;;;;;;;94.42;26.77;;;;;;;-19.15;72.65;99793.95;1861063;77;21026;-69
2021/01/20 03:06:35;;;;;;;121.02;33.95;;;;;;;-19.11;72.70;99788.00;1861111;77;21474;-70
2021/01/20 03:09:03;;;;;;;112.97;30.68;;;;;;;-19.07;72.80;99788.95;1828168;77;21533;-70
2021/01/20 03:11:31;;;;;;;135.22;37.17;;;;;;;-19.03;72.79;99786.88;1861047;77;21213;-69
2021/01/20 03:13:58;;;;;;;149.57;41.45;;;;;;;-19.01;72.78;99796.75;1828164;77;21580;-70
2021/01/20 03:16:28;;;;;;;95.22;30.80;;;;;;;-19.00;72.80;99794.49;1861035;77;20916;-69
2021/01/20 03:18:56;;;;;;;100.72;27.85;;;;;;;-18.98;72.80;99784.73;1861168;77;20939;-69
2021/01/20 03:21:25;;;;;;;117.93;31.85;;;;;;;-19.01;72.72;99790.22;1876577;76;21468;-69
2021/01/20 03:23:53;;;;;;;122.07;29.32;;;;;;;-19.07;72.80;99783.71;1807290;79;21116;-69
2021/01/20 03:26:20;;;;;;;97.65;27.60;;;;;;;-19.13;72.91;99780.75;1822872;78;21005;-70
2021/01/20 03:28:47;;;;;;;93.15;26.02;;;;;;;-19.18;72.99;99777.19;1822930;78;20875;-70
2021/01/20 03:31:15;;;;;;;133.97;38.63;;;;;;;-19.19;73.17;99774.70;1807171;79;21046;-70
2021/01/20 03:33:43;;;;;;;102.65;27.75;;;;;;;-19.24;73.19;99774.22;1822982;78;20910;-70
2021/01/20 03:36:10;;;;;;;115.67;33.88;;;;;;;-19.25;73.42;99776.48;1822936;78;21407;-70
2021/01/20 03:38:37;;;;;;;104.83;29.57;;;;;;;-19.23;73.52;99779.81;1807101;79;20930;-70
2021/01/20 03:41:05;;;;;;;110.15;31.52;;;;;;;-19.21;73.62;99782.66;1826086;78;21468;-70
2021/01/20 03:43:32;;;;;;;126.15;35.10;;;;;;;-19.18;73.68;99775.05;1813235;79;21479;-70
2021/01/20 03:45:59;;;;;;;130.30;33.20;;;;;;;-19.16;73.76;99767.44;1826136;78;20939;-70
2021/01/20 03:48:26;;;;;;;136.95;37.25;;;;;;;-19.14;73.81;99771.23;1813158;79;21344;-69
2021/01/20 03:50:54;;;;;;;91.75;25.45;;;;;;;-19.13;73.90;99770.28;1825755;78;20934;-69
2021/01/20 03:53:22;;;;;;;93.27;23.87;;;;;;;-19.12;74.00;99769.33;1812566;79;20986;-68
2021/01/20 03:55:49;;;;;;;102.90;28.50;;;;;;;-19.13;74.09;99756.72;1825485;78;21563;-68
2021/01/20 03:58:18;;;;;;;116.50;30.75;;;;;;;-19.12;74.15;99754.46;1812616;79;21041;-68
2021/01/20 04:00:47;;;;;;;98.10;25.45;;;;;;;-19.12;74.23;99757.56;1797362;78;21468;-71
2021/01/20 04:03:14;;;;;;;101.35;28.67;;;;;;;-19.13;74.19;99754.59;1799288;78;21505;-72
2021/01/20 04:05:55;;;;;;;83.05;23.02;;;;;;;-19.10;74.27;99749.11;1863637;75;22693;-68
2021/01/20 04:08:22;;;;;;;93.33;25.90;;;;;;;-19.14;74.33;99756.37;1827467;78;21579;-67
2021/01/20 04:10:51;;;;;;;94.00;27.32;;;;;;;-19.14;74.37;99749.83;1860843;77;21556;-67
2021/01/20 04:13:18;;;;;;;96.42;26.82;;;;;;;-19.16;74.38;99750.42;1860994;77;21104;-66
2021/01/20 04:15:46;;;;;;;98.60;28.15;;;;;;;-19.18;74.61;99749.72;1861045;77;20914;-66
2021/01/20 04:18:14;;;;;;;91.32;25.20;;;;;;;-19.19;74.72;99749.84;1861041;77;20902;-66
2021/01/20 04:20:43;;;;;;;97.15;26.80;;;;;;;-19.18;74.80;99748.89;1844941;77;20929;-66
2021/01/20 04:23:11;;;;;;;96.97;30.65;;;;;;;-19.16;74.87;99756.14;1825561;78;21241;-67
2021/01/20 04:25:38;;;;;;;104.47;25.57;;;;;;;-19.14;74.89;99747.69;1825491;78;20981;-67
2021/01/20 04:28:06;;;;;;;97.17;26.10;;;;;;;-19.10;75.29;99751.72;1825555;78;20954;-67
2021/01/20 04:30:33;;;;;;;97.08;26.45;;;;;;;-19.07;75.23;99752.31;1825541;78;20937;-66
2021/01/20 04:33:01;;;;;;;102.60;28.12;;;;;;;-19.04;75.16;99756.44;1825573;78;20966;-66
2021/01/20 04:35:29;;;;;;;114.37;31.37;;;;;;;-19.06;75.00;99760.99;1825603;78;21555;-67
2021/01/20 04:37:57;;;;;;;106.80;29.25;;;;;;;-19.03;75.01;99763.81;1825499;78;21013;-67
2021/01/20 04:40:25;;;;;;;121.45;34.63;;;;;;;-19.02;74.85;99768.92;1825561;78;20934;-67
2021/01/20 04:42:52;;;;;;;112.10;32.17;;;;;;;-19.03;74.76;99771.19;1825622;78;20875;-67
2021/01/20 04:45:20;;;;;;;123.72;34.15;;;;;;;-19.03;74.75;99766.42;1815868;78;21006;-67
2021/01/20 04:47:50;;;;;;;143.35;38.88;;;;;;;-19.01;74.68;99761.91;1793048;80;21356;-67
2021/01/20 04:50:20;;;;;;;130.43;35.58;;;;;;;-19.02;74.68;99765.00;1804959;78;21116;-68
2021/01/20 04:52:47;;;;;;;122.40;36.80;;;;;;;-19.02;74.69;99766.78;1825559;78;21040;-68
2021/01/20 04:55:15;;;;;;;121.00;32.33;;;;;;;-19.02;74.68;99768.92;1825507;78;20926;-67
2021/01/20 04:57:43;;;;;;;146.87;36.42;;;;;;;-19.02;74.72;99768.92;1825590;78;20874;-68
2021/01/20 05:00:12;;;;;;;147.50;40.70;;;;;;;-18.98;74.76;99774.27;1814717;78;20988;-67
2021/01/20 05:02:39;;;;;;;132.35;36.45;;;;;;;-18.96;74.70;99778.91;1793109;80;20960;-66
2021/01/20 05:05:09;;;;;;;141.15;33.92;;;;;;;-18.93;74.69;99776.52;1805517;78;21162;-66
2021/01/20 05:07:38;;;;;;;109.03;32.05;;;;;;;-18.91;74.70;99785.08;1766187;78;21037;-67
2021/01/20 05:10:08;;;;;;;122.40;33.15;;;;;;;-18.90;74.68;99781.50;1821093;78;21033;-69
2021/01/20 05:12:43;;;;;;;104.35;28.20;;;;;;;-18.92;74.69;99775.08;1793027;79;21369;-69
2021/01/20 05:15:16;;;;;;;120.45;34.83;;;;;;;-18.94;74.74;99778.30;1793060;80;21500;-69
2021/01/20 05:18:02;;;;;;;115.32;32.78;;;;;;;-18.95;74.71;99784.97;1792517;80;20942;-70
2021/01/20 05:20:37;;;;;;;121.50;34.18;;;;;;;-18.97;74.71;99781.16;1820328;78;21496;-69
2021/01/20 05:23:07;;;;;;;108.30;30.80;;;;;;;-19.01;74.69;99776.30;1824941;78;20941;-70
2021/01/20 05:25:40;;;;;;;109.32;30.17;;;;;;;-19.07;74.76;99778.48;1825025;78;21182;-70
2021/01/20 05:28:23;;;;;;;121.90;34.98;;;;;;;-19.10;74.78;99787.87;1824902;78;20981;-68
2021/01/20 05:31:01;;;;;;;109.17;29.45;;;;;;;-19.10;74.83;99788.36;1824918;78;21599;-70
2021/01/20 05:33:38;;;;;;;96.40;26.23;;;;;;;-19.10;74.85;99796.20;1809564;78;20972;-69
2021/01/20 05:36:14;;;;;;;109.15;33.55;;;;;;;-19.12;74.73;99802.87;1825114;78;21488;-69
2021/01/20 05:38:48;;;;;;;108.63;29.50;;;;;;;-19.12;74.76;99819.88;1824998;78;21345;-69
2021/01/20 05:41:22;;;;;;;97.37;26.30;;;;;;;-19.12;74.70;99818.56;1824917;78;20898;-69
2021/01/20 05:43:53;;;;;;;113.40;31.20;;;;;;;-19.13;74.56;99820.00;1824981;78;21536;-69
2021/01/20 05:46:34;;;;;;;116.10;33.50;;;;;;;-19.16;74.55;99815.00;1824929;78;21068;-69
2021/01/20 05:49:01;;;;;;;127.55;36.05;;;;;;;-19.19;74.56;99820.48;1824272;78;21001;-67
2021/01/20 05:51:42;;;;;;;119.55;33.53;;;;;;;-19.21;74.60;99824.52;1824892;78;21368;-68
2021/01/20 05:54:10;;;;;;;125.75;35.20;;;;;;;-19.18;74.86;99820.83;1821615;78;20946;-75
2021/01/20 05:56:38;;;;;;;111.52;28.45;;;;;;;-19.14;74.94;99824.88;1798320;78;21055;-75
2021/01/20 05:59:09;;;;;;;85.28;23.25;;;;;;;-19.12;74.94;99819.88;1792352;80;20952;-75
2021/01/20 06:01:35;;;;;;;125.65;33.10;;;;;;;-19.13;74.92;99826.54;1792256;79;21065;-73
2021/01/20 06:04:06;;;;;;;92.62;26.90;;;;;;;-19.15;74.87;99821.91;1792253;78;21419;-75
2021/01/20 06:06:35;;;;;;;129.13;38.43;;;;;;;-19.14;75.17;99820.95;1798128;78;20958;-76
2021/01/20 06:09:03;;;;;;;111.57;26.95;;;;;;;-19.14;75.09;99820.47;1798197;79;20994;-74
2021/01/20 06:11:30;;;;;;;93.27;23.73;;;;;;;-19.13;75.22;99829.16;1798249;79;21006;-75
2021/01/20 06:14:00;;;;;;;103.12;31.15;;;;;;;-19.14;75.27;99817.02;1798358;79;21603;-77
2021/01/20 06:16:29;;;;;;;82.80;25.52;;;;;;;-19.13;75.35;99826.54;1757054;79;21096;-76
2021/01/20 06:19:09;;;;;;;106.12;31.70;;;;;;;-19.11;75.38;99819.41;1798346;79;21153;-76
2021/01/20 06:21:37;;;;;;;82.17;25.27;;;;;;;-19.07;75.49;99830.81;1798232;78;21022;-73
2021/01/20 06:24:32;;;;;;;118.33;32.63;;;;;;;-19.02;75.51;99826.49;1798367;78;20922;-80
2021/01/20 06:27:12;;;;;;;81.17;23.65;;;;;;;-18.99;75.59;99827.56;1798323;79;20927;-71
2021/01/20 06:29:46;;;;;;;84.47;25.82;;;;;;;-18.89;75.76;99824.57;1798586;79;21186;-74
2021/01/20 06:32:23;;;;;;;91.97;26.05;;;;;;;-18.80;75.59;99825.15;1890103;76;22713;-74
2021/01/20 06:34:53;;;;;;;102.67;25.95;;;;;;;-18.80;75.52;99826.94;1860904;77;21466;-72
2021/01/20 06:37:41;;;;;;;74.25;22.87;;;;;;;-18.77;75.53;99821.45;1860303;77;21302;-68
2021/01/20 06:40:26;;;;;;;107.52;32.23;;;;;;;-18.71;75.64;99815.73;1834039;77;21215;-73
2021/01/20 06:42:54;;;;;;;126.15;34.10;;;;;;;-18.67;75.62;99821.07;1836290;76;21034;-69
2021/01/20 06:45:25;;;;;;;105.60;29.50;;;;;;;-18.64;75.65;99818.69;1859774;77;20923;-70
2021/01/20 06:48:06;;;;;;;95.60;25.80;;;;;;;-18.61;75.77;99821.05;1860767;77;21145;-68
2021/01/20 06:51:09;;;;;;;97.12;23.83;;;;;;;-18.57;75.90;99825.89;1860794;77;21239;-71
2021/01/20 06:53:56;;;;;;;;;;;;;;;-18.46;76.09;99828.92;1863420;77;21564;-71
2021/01/20 06:56:52;;;;;;;63.68;19.17;;;;;;;-18.33;76.12;99831.38;1860623;77;20150;-68
2021/01/20 06:59:30;;;;;;;81.20;22.55;;;;;;;-18.01;76.79;99818.25;1860770;77;21114;-67
2021/01/20 07:02:10;;;;;;;76.05;23.00;;;;;;;-17.36;76.82;99819.19;1860690;77;21529;-67
2021/01/20 07:04:53;;;;;;;75.50;24.02;;;;;;;-16.77;75.87;99820.53;1859781;77;21332;-73
2021/01/20 07:07:54;;;;;;;85.07;24.00;;;;;;;-16.24;74.16;99822.75;1860123;77;21584;-74
2021/01/20 07:10:24;;;;;;;87.50;28.12;;;;;;;-15.78;73.19;99829.06;1860135;77;21589;-74
2021/01/20 07:13:17;;;;;;;93.45;28.40;;;;;;;-15.30;71.88;99835.48;1851751;76;21077;-71
2021/01/20 07:15:47;;;;;;;92.88;28.25;;;;;;;-14.99;70.64;99827.29;1812484;77;21153;-74
2021/01/20 07:18:16;;;;;;;91.05;29.55;;;;;;;-14.72;69.95;99827.30;1860955;77;22111;-76
2021/01/20 07:20:45;;;;;;;100.80;35.13;;;;;;;-14.49;69.44;99823.27;1845935;77;21169;-73
2021/01/20 07:23:13;;;;;;;106.80;33.92;;;;;;;-14.19;69.22;99837.85;1824565;78;21616;-72
2021/01/20 07:25:43;;;;;;;97.95;31.97;;;;;;;-13.88;67.70;99835.66;1825496;78;20932;-74
2021/01/20 07:28:10;;;;;;;100.50;31.07;;;;;;;-13.75;66.89;99840.52;1769580;78;21047;-72
2021/01/20 07:30:38;;;;;;;97.37;34.05;;;;;;;-13.55;67.21;99840.67;1828292;77;22257;-73
2021/01/20 07:33:22;;;;;;;118.28;44.60;;;;;;;-13.26;66.77;99834.23;1826460;78;21006;-75
2021/01/20 07:35:51;;;;;;;92.88;31.15;;;;;;;-13.02;66.33;99831.69;1826156;78;20884;-72
2021/01/20 07:38:18;;;;;;;96.87;31.35;;;;;;;-12.73;66.12;99837.44;1827247;78;20922;-73
2021/01/20 07:40:46;;;;;;;89.95;28.02;;;;;;;-12.54;64.34;99833.68;1827346;78;20986;-75
2021/01/20 07:43:23;;;;;;;95.47;31.93;;;;;;;-12.63;63.19;99834.64;1825808;78;21337;-81
2021/01/20 07:45:52;;;;;;;104.87;31.93;;;;;;;-12.81;63.34;99837.91;1824196;78;20892;-84
2021/01/20 07:48:30;;;;;;;99.58;32.20;;;;;;;-12.86;64.24;99835.73;1824419;78;20893;-75
2021/01/20 07:50:57;;;;;;;93.55;30.80;;;;;;;-12.75;63.99;99839.42;1824859;78;20920;-83
2021/01/20 07:53:25;;;;;;;99.77;35.80;;;;;;;-12.45;64.42;99846.44;1824935;78;21158;-83
2021/01/20 07:55:54;;;;;;;95.35;34.05;;;;;;;-12.12;63.85;99847.31;1824962;78;21347;-82
2021/01/20 07:58:28;;;;;;;90.92;32.28;;;;;;;-11.76;63.09;99851.80;1824686;78;21114;-84
2021/01/20 08:00:56;;;;;;;82.70;29.70;;;;;;;-11.47;62.88;99848.62;1825568;78;20999;-84
2021/01/20 08:03:34;;;;;;;86.35;32.03;;;;;;;-11.23;61.51;99849.92;1824872;78;21560;-82
2021/01/20 08:06:06;;;;;;;98.37;33.90;;;;;;;-11.20;60.58;99849.58;1825004;78;20908;-83
2021/01/20 08:08:32;;;;;;;122.02;39.63;;;;;;;-11.26;60.27;99845.45;1824842;78;22601;-79
2021/01/20 08:11:02;;;;;;;88.07;31.57;;;;;;;-11.25;60.03;99844.45;1824858;78;20931;-78
2021/01/20 08:13:30;;;;;;;95.60;33.58;;;;;;;-11.26;60.48;99835.67;1824876;78;20940;-81
2021/01/20 08:15:57;;;;;;;136.75;41.98;;;;;;;-11.12;61.11;99840.78;1824463;78;21062;-77
2021/01/20 08:18:25;;;;;;;92.70;31.48;;;;;;;-10.79;60.26;99838.34;1824445;78;21550;-81
2021/01/20 08:20:53;;;;;;;84.70;29.77;;;;;;;-10.69;59.57;99836.81;1824533;78;22252;-80
2021/01/20 08:23:40;;;;;;;150.22;56.15;;;;;;;-10.64;59.20;99842.93;1824413;78;21594;-80
2021/01/20 08:26:08;;;;;;;76.00;26.68;;;;;;;-10.66;58.53;99849.73;1824367;78;21574;-78
2021/01/20 08:28:35;;;;;;;94.65;34.67;;;;;;;-10.95;58.49;99850.33;1824306;78;21617;-81
2021/01/20 08:31:21;;;;;;;89.95;29.67;;;;;;;-11.01;60.10;99853.69;1824747;78;21181;-73
2021/01/20 08:33:49;;;;;;;89.80;32.48;;;;;;;-10.70;60.19;99849.25;1827494;78;21658;-74
2021/01/20 08:36:23;;;;;;;71.07;23.50;;;;;;;-10.54;59.05;99844.88;1827332;78;21130;-74
2021/01/20 08:39:08;;;;;;;79.03;26.68;;;;;;;-10.50;58.53;99845.69;1827435;78;21046;-73
2021/01/20 08:41:35;;;;;;;74.75;27.48;;;;;;;-10.39;59.33;99849.25;1827498;77;21132;-81
2021/01/20 08:44:15;;;;;;;63.92;23.87;;;;;;;-10.20;58.66;99849.83;1828362;78;21172;-77
2021/01/20 08:46:47;;;;;;;77.22;28.20;;;;;;;-10.10;59.11;99839.77;1827922;78;21415;-74
2021/01/20 08:49:18;;;;;;;69.05;25.50;;;;;;;-10.02;58.41;99851.17;1827533;78;20959;-75
2021/01/20 08:51:57;;;;;;;86.00;29.25;;;;;;;-9.78;58.71;99842.69;1828058;78;20999;-75
2021/01/20 08:54:25;;;;;;;84.40;28.75;;;;;;;-9.38;58.55;99842.35;1828034;78;21015;-74
2021/01/20 08:56:53;;;;;;;64.75;22.65;;;;;;;-8.98;57.37;99850.09;1828091;78;20924;-76
2021/01/20 08:59:21;;;;;;;63.55;21.20;;;;;;;-8.95;55.55;99841.24;1798381;78;21372;-73
2021/01/20 09:01:49;;;;;;;61.28;22.58;;;;;;;-9.10;55.81;99841.73;1827961;78;20932;-76
2021/01/20 09:04:16;;;;;;;58.35;21.12;;;;;;;-9.17;56.14;99840.80;1820643;78;21022;-74
2021/01/20 09:06:44;;;;;;;56.75;20.77;;;;;;;-9.20;56.13;99842.50;1786644;78;21109;-74
2021/01/20 09:09:13;;;;;;;70.80;24.43;;;;;;;-9.36;56.61;99838.19;1818837;78;21004;-74
2021/01/20 09:11:40;;;;;;;70.25;26.82;;;;;;;-9.19;57.36;99845.48;1817939;79;21111;-76
2021/01/20 09:14:08;;;;;;;78.72;26.15;;;;;;;-8.92;56.92;99838.72;1788654;79;21484;-77
2021/01/20 09:16:35;;;;;;;51.83;21.37;;;;;;;-8.60;56.79;99834.84;1826715;77;21513;-78
2021/01/20 09:19:03;;;;;;;66.15;24.37;;;;;;;-8.32;55.45;99835.27;1828653;77;21645;-77
2021/01/20 09:21:31;;;;;;;50.88;19.07;;;;;;;-8.21;55.11;99828.63;1829478;77;20924;-76
2021/01/20 09:23:58;;;;;;;54.63;21.50;;;;;;;-8.00;55.24;99835.80;1829758;78;21364;-74
2021/01/20 09:26:26;;;;;;;59.25;21.95;;;;;;;-7.80;54.72;99835.50;1829791;78;21548;-74
2021/01/20 09:28:53;;;;;;;59.45;20.37;;;;;;;-7.77;54.19;99824.97;1829652;78;21034;-76
2021/01/20 09:31:20;;;;;;;55.17;20.17;;;;;;;-7.89;54.49;99824.65;1829674;78;21184;-73
2021/01/20 09:33:48;;;;;;;50.12;19.27;;;;;;;-8.17;54.39;99825.91;1829781;78;20923;-75
2021/01/20 09:36:15;;;;;;;58.65;20.12;;;;;;;-8.44;55.10;99827.98;1828072;78;21597;-75
2021/01/20 09:38:43;;;;;;;57.90;18.82;;;;;;;-8.66;56.27;99819.92;1826540;77;21627;-75
2021/01/20 09:41:10;;;;;;;52.08;18.75;;;;;;;-8.79;56.28;99822.44;1831878;77;20914;-74
2021/01/20 09:43:39;;;;;;;47.80;17.75;;;;;;;-8.94;56.44;99824.78;1829749;78;20911;-81
2021/01/20 09:46:07;;;;;;;48.33;18.80;;;;;;;-9.20;56.50;99819.89;1830410;78;21460;-78
2021/01/20 09:48:35;;;;;;;60.52;24.25;;;;;;;-9.40;58.33;99824.43;1829727;78;21355;-74
2021/01/20 09:51:02;;;;;;;58.42;19.10;;;;;;;-9.43;57.66;99822.63;1829666;78;20937;-77
2021/01/20 09:53:29;;;;;;;50.63;16.67;;;;;;;-9.55;57.57;99838.19;1800224;78;20914;-78
2021/01/20 09:55:57;;;;;;;60.08;20.82;;;;;;;-9.68;58.25;99835.30;1829112;77;21062;-76
2021/01/20 09:58:25;;;;;;;53.10;17.57;;;;;;;-9.69;58.87;99844.28;1828760;78;20995;-77
2021/01/20 10:00:52;;;;;;;45.98;15.30;;;;;;;-9.72;58.93;99849.95;1828037;78;21370;-77
2021/01/20 10:03:19;;;;;;;59.15;18.30;;;;;;;-9.75;59.32;99843.16;1828031;78;21501;-75
2021/01/20 10:05:48;;;;;;;65.87;20.62;;;;;;;-9.79;59.06;99835.72;1827988;78;20931;-76
2021/01/20 10:08:15;;;;;;;57.65;19.30;;;;;;;-9.80;59.76;99845.52;1827917;78;20991;-75
2021/01/20 10:10:44;;;;;;;63.20;20.40;;;;;;;-9.46;59.41;99850.91;1827889;78;21006;-73
2021/01/20 10:13:11;;;;;;;58.13;20.12;;;;;;;-9.13;59.20;99843.42;1828077;78;21410;-72
2021/01/20 10:15:39;;;;;;;49.75;17.70;;;;;;;-8.69;58.14;99840.28;1827950;78;20939;-72
2021/01/20 10:18:07;;;;;;;55.78;21.20;;;;;;;-8.43;57.06;99836.28;1828000;78;20971;-75
2021/01/20 10:20:35;;;;;;;52.98;19.52;;;;;;;-8.38;56.69;99834.72;1827915;78;20979;-77
2021/01/20 10:23:03;;;;;;;61.63;18.65;;;;;;;-8.24;56.57;99833.00;1827973;78;21046;-78
2021/01/20 10:25:32;;;;;;;53.48;20.17;;;;;;;-7.82;55.59;99833.53;1829396;78;21188;-76
2021/01/20 10:28:00;;;;;;;67.92;21.27;;;;;;;-7.61;54.84;99830.05;1829262;78;20959;-77
2021/01/20 10:30:28;;;;;;;87.62;20.43;;;;;;;-7.57;54.83;99821.98;1828724;78;20932;-77
2021/01/20 10:32:55;;;;;;;82.65;22.42;;;;;;;-7.59;53.97;99812.52;1825461;78;20932;-78
2021/01/20 10:35:23;;;;;;;61.00;18.80;;;;;;;-7.69;54.27;99805.67;1824802;78;20971;-77
2021/01/20 10:37:51;;;;;;;84.95;23.02;;;;;;;-7.52;54.58;99803.56;1824746;78;21366;-73
2021/01/20 10:40:18;;;;;;;101.75;24.50;;;;;;;-7.34;53.32;99803.06;1811913;78;20945;-73
2021/01/20 10:42:45;;;;;;;71.37;20.80;;;;;;;-7.13;54.25;99795.52;1824733;78;20983;-74
2021/01/20 10:45:14;;;;;;;69.05;21.77;;;;;;;-6.94;53.64;99810.01;1823682;78;21086;-72
2021/01/20 10:47:41;;;;;;;48.98;16.77;;;;;;;-6.93;53.62;99803.11;1824867;78;20912;-71
2021/01/20 10:50:10;;;;;;;63.98;21.57;;;;;;;-6.78;52.99;99788.30;1824678;78;21197;-72
2021/01/20 10:52:38;;;;;;;65.97;21.42;;;;;;;-6.56;52.51;99792.52;1824657;78;20991;-72
2021/01/20 10:55:07;;;;;;;49.30;19.17;;;;;;;-6.66;51.78;99798.73;1816929;78;21058;-71
2021/01/20 10:57:35;;;;;;;65.80;22.52;;;;;;;-7.09;52.15;99796.27;1817249;78;21030;-70
2021/01/20 11:00:05;;;;;;;60.85;20.72;;;;;;;-7.37;53.25;99796.78;1817682;78;21055;-70
2021/01/20 11:02:32;;;;;;;63.40;21.30;;;;;;;-7.50;54.19;99807.34;1821158;78;21355;-72
2021/01/20 11:04:59;;;;;;;48.20;18.07;;;;;;;-7.60;54.33;99805.03;1824958;78;21109;-71
2021/01/20 11:07:27;;;;;;;59.73;19.50;;;;;;;-7.72;54.73;99799.90;1828114;78;21138;-72
2021/01/20 11:09:56;;;;;;;70.40;23.30;;;;;;;-7.85;55.27;99797.11;1815181;78;21104;-71
2021/01/20 11:12:24;;;;;;;77.47;22.35;;;;;;;-7.92;56.02;99794.89;1824543;78;20987;-74
2021/01/20 11:14:53;;;;;;;58.92;18.55;;;;;;;-8.05;56.27;99795.58;1825218;78;20889;-72
2021/01/20 11:17:20;;;;;;;51.73;16.77;;;;;;;-8.13;56.50;99795.22;1824691;78;21494;-71
2021/01/20 11:19:48;;;;;;;63.92;19.80;;;;;;;-8.28;56.87;99789.63;1820283;78;21499;-73
2021/01/20 11:22:16;;;;;;;44.05;16.25;;;;;;;-8.45;57.32;99787.72;1826747;78;21553;-72
2021/01/20 11:24:43;;;;;;;59.40;19.27;;;;;;;-8.56;58.52;99778.38;1826679;78;21000;-73